Portada
METAR-TAF:

METAR-TAF

Aeroports :

Aeroport Eugenio María de Hostos

Mayagüez, Puerto Rico, Estats Units d'Amèrica

latitud: 18-16N, longitud: 067-09W, altitud: 9 m

METAR: manca

Hora: 17:30 (21:30 UTC)

Pronòstic

L'informe es va fer fa 3 hores i 50 minuts, a les 17:40 UTC
Pronòstic vàlid del 22 a les 18 UTC al 23 a les 18 UTC
Vent 12 kt del Est/Nord-Est
Visibilitat: 10 km
Escasses núvols a una alçada de 2500 ft
Núvols disperses a una alçada de 5000 ft
A partir de les 22 a les 2300 UTC
Vent 6 kt amb direcció variable
Visibilitat: 10 km
Escasses núvols a una alçada de 2500 ft
Núvols disperses a una alçada de 5000 ft
A partir de les 23 a les 1400 UTC
Vent 12 kt del Est/Nord-Est
Visibilitat: 10 km
Escasses núvols a una alçada de 2500 ft
Núvols disperses a una alçada de 5000 ft

TAF: TJMZ 221740Z 2218/2318 06012KT P6SM FEW025 SCT050 FM222300 VRB06KT P6SM FEW025 SCT050 FM231400 06012KT P6SM FEW025 SCT050 AMD NOT SKED

Observacions i pronòstics meteorològics de més de 4000 aeroports (METAR i TAF).

Les estacions disponibles són els punts grocs i vermells al mapa.

Posi el ratolí al punt desitjat per veure el nom de l'estació.

Feu clic per veure les observacions i els pronòstics meteorològics.

Per canviar el mapa: feu clic els botons verds amb una creu de color negre per apropar; al botó verd amb un guió per allunyar la imatge; o en les fletxes verdes per a mapes adjacents.


METAR-TAF: